Time;durP1;ratioP1;P1;durP2;ratioP2;P2;SDS_P1;SDS_P2;PMS_P1;PMS_P2;Temp;Humidity;BMP_temperature;BMP_pressure;BME280_temperature;BME280_humidity;BME280_pressure;Samples;Min_cycle;Max_cycle;Signal;HPM_P1;HPM_P2
2023/01/19 00:02:20;;;;;;;6.63;0.90;;;2.00;99.90;;;;;;5115490;28;20044;-43
2023/01/19 00:04:45;;;;;;;6.47;1.00;;;2.10;99.90;;;;;;5118346;27;20031;-43
2023/01/19 00:07:11;;;;;;;6.28;1.33;;;2.00;99.90;;;;;;5117589;27;20047;-42
2023/01/19 00:09:37;;;;;;;8.55;0.90;;;2.20;99.90;;;;;;5134035;27;20050;-43
2023/01/19 00:12:04;;;;;;;6.78;0.65;;;2.10;99.90;;;;;;5116724;27;20087;-43
2023/01/19 00:14:30;;;;;;;3.83;0.75;;;2.00;99.90;;;;;;5134267;27;20039;-43
2023/01/19 00:16:56;;;;;;;3.55;0.80;;;2.20;99.90;;;;;;5133439;27;20499;-43
2023/01/19 00:19:22;;;;;;;4.65;0.60;;;2.00;99.90;;;;;;5134117;27;20047;-43
2023/01/19 00:21:48;;;;;;;5.28;0.75;;;1.90;99.90;;;;;;5135102;27;20043;-43
2023/01/19 00:24:13;;;;;;;7.03;0.85;;;1.90;99.90;;;;;;5135103;27;20147;-43
2023/01/19 00:26:41;;;;;;;5.82;0.50;;;1.80;99.90;;;;;;5134370;27;20043;-43
2023/01/19 00:29:09;;;;;;;6.95;0.93;;;1.90;99.90;;;;;;5115387;27;20074;-43
2023/01/19 00:31:35;;;;;;;6.03;0.77;;;1.80;99.90;;;;;;5134971;27;20050;-43
2023/01/19 00:34:01;;;;;;;5.50;0.88;;;1.80;99.90;;;;;;5099144;27;20043;-43
2023/01/19 00:36:27;;;;;;;9.85;1.27;;;1.90;99.90;;;;;;5134059;27;20130;-43
2023/01/19 00:38:53;;;;;;;4.80;0.98;;;1.90;99.90;;;;;;5099144;27;20459;-43
2023/01/19 00:42:38;;;;;;;3.03;0.57;;;1.80;99.90;;;;;;5134867;27;20050;-43
2023/01/19 00:44:05;;;;;;;4.47;0.80;;;1.80;99.90;;;;;;5134815;27;20051;-43
2023/01/19 00:46:30;;;;;;;4.65;0.85;;;1.90;99.90;;;;;;5099711;27;20054;-43
2023/01/19 00:48:56;;;;;;;6.82;0.80;;;1.90;99.90;;;;;;5115375;28;20059;-43
2023/01/19 00:51:22;;;;;;;3.88;0.70;;;1.90;99.90;;;;;;5119203;28;20051;-43
2023/01/19 00:53:47;;;;;;;8.82;0.70;;;2.00;99.90;;;;;;5117509;27;20432;-43
2023/01/19 00:56:13;;;;;;;5.38;1.30;;;1.90;99.90;;;;;;5134365;27;20043;-43
2023/01/19 00:58:39;;;;;;;7.10;1.55;;;2.00;99.90;;;;;;5134336;28;20075;-43
2023/01/19 01:01:04;;;;;;;7.75;1.05;;;2.00;99.90;;;;;;5133685;28;20391;-44
2023/01/19 01:03:31;;;;;;;6.03;0.90;;;2.20;99.90;;;;;;5116266;28;20446;-43
2023/01/19 01:05:57;;;;;;;8.88;0.88;;;2.20;99.90;;;;;;5098594;28;20047;-43
2023/01/19 01:08:23;;;;;;;8.88;0.82;;;2.30;99.90;;;;;;5115071;28;20142;-43
2023/01/19 01:10:50;;;;;;;3.38;0.68;;;2.20;99.90;;;;;;5133909;28;20047;-43
2023/01/19 01:13:16;;;;;;;10.32;1.25;;;2.30;99.90;;;;;;5134512;28;20054;-43
2023/01/19 01:15:42;;;;;;;6.88;0.70;;;2.30;99.90;;;;;;5134509;28;20043;-43
2023/01/19 01:18:08;;;;;;;9.57;0.80;;;2.20;99.90;;;;;;5116200;28;20051;-43
2023/01/19 01:20:36;;;;;;;8.35;1.05;;;2.20;99.90;;;;;;5133431;28;20043;-43
2023/01/19 01:23:02;;;;;;;9.27;1.02;;;2.20;99.90;;;;;;5118977;28;20051;-43
2023/01/19 01:25:29;;;;;;;8.63;0.77;;;2.10;99.90;;;;;;5113804;28;20046;-43
2023/01/19 01:27:56;;;;;;;10.13;1.23;;;2.10;99.90;;;;;;5102169;28;20039;-43
2023/01/19 01:30:22;;;;;;;8.35;0.85;;;2.00;99.90;;;;;;5133374;28;20080;-43
2023/01/19 01:32:48;;;;;;;9.43;1.05;;;2.10;99.90;;;;;;5114641;28;20043;-43
2023/01/19 01:35:15;;;;;;;8.15;0.90;;;2.20;99.90;;;;;;5133547;28;20074;-43
2023/01/19 01:37:44;;;;;;;7.13;0.77;;;2.20;99.90;;;;;;5134342;28;20393;-43
2023/01/19 01:40:12;;;;;;;10.15;2.00;;;2.30;99.90;;;;;;5133274;28;20099;-43
2023/01/19 01:42:39;;;;;;;6.40;1.05;;;2.30;99.90;;;;;;5134251;28;20129;-43
2023/01/19 01:45:29;;;;;;;6.25;1.45;;;2.40;99.90;;;;;;5136432;27;20100;-43
2023/01/19 01:48:03;;;;;;;7.03;0.80;;;2.50;99.90;;;;;;5137028;27;20051;-43
2023/01/19 01:50:32;;;;;;;8.15;1.45;;;2.50;99.90;;;;;;5103194;27;20055;-44
2023/01/19 01:53:10;;;;;;;8.27;1.40;;;2.50;99.90;;;;;;5138070;27;20131;-43
2023/01/19 01:55:40;;;;;;;9.43;1.30;;;2.60;99.90;;;;;;5138024;27;20477;-43
2023/01/19 01:58:09;;;;;;;6.88;1.30;;;2.60;99.90;;;;;;5138810;27;20075;-43
2023/01/19 02:03:22;;;;;;;5.15;1.33;;;2.60;99.90;;;;;;5136843;27;20043;-45
2023/01/19 02:05:48;;;;;;;6.95;1.25;;;2.60;99.90;;;;;;5136634;27;20050;-43
2023/01/19 02:13:50;;;;;;;13.07;2.10;;;2.80;99.90;;;;;;5137996;27;20047;-43
2023/01/19 02:16:16;;;;;;;11.10;1.40;;;2.80;99.90;;;;;;5137621;27;20031;-44
2023/01/19 02:18:44;;;;;;;11.80;1.40;;;2.80;99.90;;;;;;5137552;27;20043;-43
2023/01/19 02:21:21;;;;;;;13.30;2.47;;;2.80;99.90;;;;;;5136666;27;20047;-43
2023/01/19 02:23:50;;;;;;;10.02;2.03;;;2.90;99.90;;;;;;5138256;27;20043;-43
2023/01/19 02:26:30;;;;;;;8.77;1.13;;;2.90;99.90;;;;;;5118029;27;20039;-43
2023/01/19 02:29:00;;;;;;;9.20;1.30;;;2.90;99.90;;;;;;5137893;27;20423;-43
2023/01/19 02:31:28;;;;;;;15.60;1.52;;;2.90;99.90;;;;;;5136500;27;20095;-43
2023/01/19 02:33:55;;;;;;;11.27;2.00;;;2.90;99.90;;;;;;5102715;27;20410;-43
2023/01/19 02:36:24;;;;;;;14.93;2.10;;;3.00;99.90;;;;;;5137233;27;20051;-44
2023/01/19 02:38:54;;;;;;;8.82;2.10;;;3.00;99.90;;;;;;5137274;27;20173;-43
2023/01/19 02:41:24;;;;;;;5.20;1.17;;;3.00;99.90;;;;;;5118263;27;20058;-43
2023/01/19 02:43:52;;;;;;;9.80;1.80;;;2.90;99.90;;;;;;5101232;27;20133;-46
2023/01/19 02:46:18;;;;;;;9.43;1.92;;;2.90;99.90;;;;;;5119926;27;20039;-43
2023/01/19 02:48:43;;;;;;;11.27;2.00;;;2.90;99.90;;;;;;5136599;27;20116;-43
2023/01/19 02:51:29;;;;;;;11.82;1.70;;;3.00;99.90;;;;;;5135888;27;20047;-44
2023/01/19 02:54:23;;;;;;;11.80;1.80;;;3.00;99.90;;;;;;5135330;27;20059;-43
2023/01/19 02:57:02;;;;;;;10.57;1.52;;;3.00;99.90;;;;;;5136271;27;20051;-43
2023/01/19 02:59:28;;;;;;;10.77;1.80;;;2.90;99.90;;;;;;5118799;27;20059;-43
2023/01/19 03:02:03;;;;;;;10.82;1.55;;;3.00;99.90;;;;;;5136751;27;20051;-44
2023/01/19 03:04:43;;;;;;;8.00;1.48;;;3.00;99.90;;;;;;5136580;27;20050;-44
2023/01/19 03:07:22;;;;;;;7.60;1.90;;;3.00;99.90;;;;;;5136531;27;20047;-44
2023/01/19 03:10:01;;;;;;;9.40;1.88;;;3.00;99.90;;;;;;5136281;27;20126;-44
2023/01/19 03:12:43;;;;;;;17.25;2.05;;;3.00;99.90;;;;;;5137130;27;20362;-43
2023/01/19 03:15:30;;;;;;;13.38;1.98;;;3.00;99.90;;;;;;5137155;27;20051;-44
2023/01/19 03:17:59;;;;;;;9.52;2.70;;;3.00;99.90;;;;;;5135865;27;20121;-44
2023/01/19 03:20:27;;;;;;;9.82;2.65;;;2.90;99.90;;;;;;5135371;27;20057;-44
2023/01/19 03:23:04;;;;;;;8.73;2.63;;;2.90;99.90;;;;;;5118524;27;20063;-44
2023/01/19 03:25:34;;;;;;;12.27;3.97;;;3.00;99.90;;;;;;5117628;27;20481;-43
2023/01/19 03:28:02;;;;;;;10.07;4.68;;;3.00;99.90;;;;;;5100492;27;20095;-44
2023/01/19 03:30:33;;;;;;;12.15;5.13;;;2.70;99.90;;;;;;5116784;27;20051;-44
2023/01/19 03:33:04;;;;;;;11.70;5.18;;;2.80;99.90;;;;;;5115586;28;20051;-44
2023/01/19 03:35:33;;;;;;;11.07;4.82;;;2.80;99.90;;;;;;5115571;28;20043;-44
2023/01/19 03:38:05;;;;;;;10.00;5.10;;;2.70;99.90;;;;;;5113426;27;20051;-43
2023/01/19 03:40:32;;;;;;;11.32;5.13;;;2.70;99.90;;;;;;5118463;27;20047;-44
2023/01/19 03:42:59;;;;;;;9.57;4.38;;;2.60;99.90;;;;;;5134918;27;20047;-44
2023/01/19 03:45:26;;;;;;;11.57;5.53;;;2.70;99.90;;;;;;5136288;27;20050;-44
2023/01/19 03:47:53;;;;;;;13.15;5.47;;;2.50;99.90;;;;;;5134753;27;20051;-44
2023/01/19 03:50:28;;;;;;;11.80;5.63;;;2.60;99.90;;;;;;5116976;27;20043;-44
2023/01/19 03:53:12;;;;;;;15.10;6.57;;;2.60;99.90;;;;;;5135134;27;20043;-43
2023/01/19 03:55:39;;;;;;;;;;;2.60;99.90;;;;;;5135175;27;20058;-43
2023/01/19 03:58:05;;;;;;;12.15;5.93;;;2.50;99.90;;;;;;5135572;27;20017;-44
2023/01/19 04:00:31;;;;;;;16.90;5.93;;;2.60;99.90;;;;;;5125162;27;20079;-43
2023/01/19 04:02:56;;;;;;;16.38;6.35;;;2.50;99.90;;;;;;5135102;27;20049;-43
2023/01/19 04:05:24;;;;;;;15.73;6.00;;;2.60;99.90;;;;;;5135381;27;20451;-43
2023/01/19 04:07:51;;;;;;;10.07;4.07;;;2.40;99.90;;;;;;5134401;27;20493;-44
2023/01/19 04:10:18;;;;;;;16.45;6.00;;;2.50;99.90;;;;;;5134765;27;20039;-44
2023/01/19 04:12:44;;;;;;;14.18;5.28;;;2.40;99.90;;;;;;5116105;27;20046;-42
2023/01/19 04:15:10;;;;;;;16.98;6.15;;;2.40;99.90;;;;;;5134960;27;20035;-42
2023/01/19 04:17:36;;;;;;;14.40;5.65;;;2.50;99.90;;;;;;5136097;27;20142;-41
2023/01/19 04:20:02;;;;;;;12.15;4.75;;;2.50;99.90;;;;;;5117154;27;20071;-41
2023/01/19 04:22:29;;;;;;;16.73;6.20;;;2.30;99.90;;;;;;5124931;27;20114;-43
2023/01/19 04:24:54;;;;;;;17.40;5.53;;;2.30;99.90;;;;;;5135627;27;20039;-42
2023/01/19 04:27:20;;;;;;;13.60;5.30;;;2.30;99.90;;;;;;5100055;27;20047;-43
2023/01/19 04:29:46;;;;;;;16.85;5.60;;;2.20;99.90;;;;;;5116232;27;20121;-43
2023/01/19 04:32:14;;;;;;;17.85;5.47;;;2.00;99.90;;;;;;5134450;27;20118;-43
2023/01/19 04:34:40;;;;;;;15.25;5.72;;;2.00;99.90;;;;;;5116738;27;20046;-43
2023/01/19 04:37:07;;;;;;;17.33;5.68;;;2.00;99.90;;;;;;5134922;27;20489;-44
2023/01/19 04:39:33;;;;;;;16.85;5.05;;;1.90;99.90;;;;;;5133605;27;20081;-43
2023/01/19 04:41:59;;;;;;;15.30;5.10;;;2.00;99.90;;;;;;5115465;27;20125;-47
2023/01/19 04:44:26;;;;;;;19.92;5.47;;;1.90;99.90;;;;;;5134878;27;20144;-44
2023/01/19 04:46:52;;;;;;;15.77;4.75;;;1.80;99.90;;;;;;5133728;27;20657;-43
2023/01/19 04:49:17;;;;;;;11.73;4.07;;;1.70;99.90;;;;;;5135008;27;20055;-43
2023/01/19 04:51:43;;;;;;;14.63;3.25;;;1.70;99.90;;;;;;5116694;27;20051;-43
2023/01/19 04:54:09;;;;;;;10.98;3.13;;;1.60;99.90;;;;;;5115652;27;20397;-43
2023/01/19 04:56:35;;;;;;;10.50;3.25;;;1.60;99.90;;;;;;5134706;27;20067;-43
2023/01/19 04:59:01;;;;;;;14.70;3.70;;;1.70;99.90;;;;;;5134649;27;20046;-43
2023/01/19 05:01:27;;;;;;;6.45;1.92;;;1.70;99.90;;;;;;5115752;28;20043;-42
2023/01/19 05:03:53;;;;;;;10.98;2.25;;;1.70;99.90;;;;;;5133250;28;20058;-42
2023/01/19 05:06:19;;;;;;;16.08;2.55;;;1.70;99.90;;;;;;5134488;28;20042;-42
2023/01/19 05:08:44;;;;;;;3.72;0.93;;;1.60;99.90;;;;;;5133902;28;20047;-42
2023/01/19 05:11:10;;;;;;;8.25;1.80;;;1.70;99.90;;;;;;5134592;28;20085;-42
2023/01/19 05:13:36;;;;;;;3.45;0.63;;;1.70;99.90;;;;;;5115409;28;20043;-42
2023/01/19 05:16:02;;;;;;;5.13;0.70;;;1.60;99.90;;;;;;5112043;28;20088;-42
2023/01/19 05:18:28;;;;;;;2.35;0.60;;;1.60;99.90;;;;;;5095806;28;20054;-41
2023/01/19 05:20:54;;;;;;;5.10;0.60;;;1.60;99.90;;;;;;5125498;27;20165;-42
2023/01/19 05:23:20;;;;;;;4.65;0.82;;;1.60;99.90;;;;;;5138673;27;20079;-41
2023/01/19 05:25:46;;;;;;;3.90;0.60;;;1.40;99.90;;;;;;5135539;27;20509;-41
2023/01/19 05:28:12;;;;;;;5.28;0.63;;;1.70;99.90;;;;;;5138463;27;20499;-42
2023/01/19 05:30:37;;;;;;;4.80;0.50;;;1.60;99.90;;;;;;5138507;27;20047;-41
2023/01/19 05:33:04;;;;;;;3.13;0.38;;;1.40;99.90;;;;;;5120072;27;20047;-41
2023/01/19 05:35:29;;;;;;;7.47;0.88;;;1.50;99.90;;;;;;5137413;27;20035;-41
2023/01/19 05:37:55;;;;;;;8.50;3.13;;;1.40;99.90;;;;;;5118930;27;20043;-41
2023/01/19 05:40:21;;;;;;;9.00;2.60;;;1.70;99.90;;;;;;5119120;27;20043;-41
2023/01/19 05:42:46;;;;;;;11.63;2.17;;;2.20;99.90;;;;;;5138846;27;20046;-42
2023/01/19 05:45:12;;;;;;;7.55;0.80;;;2.20;99.90;;;;;;5137130;27;20039;-41
2023/01/19 05:47:38;;;;;;;7.18;1.00;;;2.20;99.90;;;;;;5119597;27;20047;-42
2023/01/19 05:50:05;;;;;;;4.78;0.63;;;2.40;99.90;;;;;;5136866;27;20043;-41
2023/01/19 05:52:31;;;;;;;5.88;0.75;;;2.20;99.90;;;;;;5136878;27;20126;-41
2023/01/19 05:54:56;;;;;;;6.20;0.73;;;2.10;99.90;;;;;;5137316;27;20541;-41
2023/01/19 05:57:23;;;;;;;7.88;0.90;;;1.90;99.90;;;;;;5119576;27;20388;-41
2023/01/19 05:59:48;;;;;;;10.73;0.70;;;2.00;99.90;;;;;;5136959;27;20058;-41
2023/01/19 06:02:14;;;;;;;8.50;0.75;;;1.80;99.90;;;;;;5137869;27;20043;-41
2023/01/19 06:04:40;;;;;;;6.00;0.77;;;1.70;99.90;;;;;;5102013;27;20104;-41
2023/01/19 06:07:05;;;;;;;11.25;1.30;;;1.60;99.90;;;;;;5136969;27;20408;-41
2023/01/19 06:09:32;;;;;;;14.95;2.22;;;1.70;99.90;;;;;;5120503;27;20039;-41
2023/01/19 06:11:58;;;;;;;5.63;0.80;;;1.40;99.90;;;;;;5137741;27;20123;-40
2023/01/19 06:14:25;;;;;;;11.88;1.98;;;1.30;99.90;;;;;;5118596;27;20047;-40
2023/01/19 06:16:51;;;;;;;4.93;0.70;;;1.20;99.90;;;;;;5136586;27;20049;-41
2023/01/19 06:19:17;;;;;;;14.80;1.77;;;1.30;99.90;;;;;;5136596;27;20493;-41
2023/01/19 06:21:48;;;;;;;11.88;1.35;;;1.80;99.90;;;;;;5137494;27;20054;-42
2023/01/19 06:24:15;;;;;;;14.88;1.60;;;2.30;99.90;;;;;;5102719;27;20090;-43
2023/01/19 06:26:42;;;;;;;14.18;1.27;;;2.50;99.90;;;;;;5100463;27;20100;-42
2023/01/19 06:29:10;;;;;;;14.88;2.90;;;2.40;99.90;;;;;;5119276;27;20126;-42
2023/01/19 06:31:36;;;;;;;11.45;1.45;;;2.30;99.90;;;;;;5136296;27;20396;-42
2023/01/19 06:34:02;;;;;;;17.52;1.70;;;2.30;99.90;;;;;;5136621;27;20043;-42
2023/01/19 06:36:27;;;;;;;12.68;1.55;;;2.30;99.90;;;;;;5136225;27;20381;-41
2023/01/19 06:38:53;;;;;;;12.50;2.92;;;2.40;99.90;;;;;;5135695;27;20547;-42
2023/01/19 06:41:19;;;;;;;14.38;2.05;;;2.30;99.90;;;;;;5137091;27;20047;-42
2023/01/19 06:43:44;;;;;;;10.73;0.98;;;2.20;99.90;;;;;;5137027;27;20099;-41
2023/01/19 06:46:10;;;;;;;12.60;1.83;;;2.20;99.90;;;;;;5135105;27;20039;-41
2023/01/19 06:48:36;;;;;;;10.32;1.65;;;2.20;99.90;;;;;;5101571;27;20066;-41
2023/01/19 06:51:02;;;;;;;12.60;1.40;;;2.30;99.90;;;;;;5135648;27;20043;-40
2023/01/19 06:53:29;;;;;;;8.77;0.98;;;2.60;99.90;;;;;;5118799;27;20054;-40
2023/01/19 06:55:59;;;;;;;14.25;2.60;;;2.70;99.90;;;;;;5136149;27;20484;-39
2023/01/19 06:58:26;;;;;;;7.57;1.42;;;2.90;99.90;;;;;;5119262;27;20047;-41
2023/01/19 07:00:51;;;;;;;8.80;1.00;;;3.10;99.90;;;;;;5136533;27;20465;-42
2023/01/19 07:03:20;;;;;;;2.40;0.55;;;3.10;99.90;;;;;;5137074;27;20046;-41
2023/01/19 07:05:45;;;;;;;9.30;1.00;;;3.20;99.90;;;;;;5135598;27;20047;-41
2023/01/19 07:08:11;;;;;;;9.82;1.20;;;3.20;99.90;;;;;;5119049;27;20047;-40
2023/01/19 07:10:37;;;;;;;13.57;1.48;;;3.10;99.90;;;;;;5136582;27;20046;-39
2023/01/19 07:13:03;;;;;;;16.48;1.85;;;3.50;99.90;;;;;;5136122;27;20122;-40
2023/01/19 07:15:31;;;;;;;14.90;1.27;;;3.10;99.90;;;;;;5135852;27;20042;-38
2023/01/19 07:17:58;;;;;;;14.00;2.58;;;3.00;99.90;;;;;;5136444;27;20051;-38
2023/01/19 07:20:23;;;;;;;26.02;3.70;;;2.90;99.90;;;;;;5136367;27;20103;-38
2023/01/19 07:22:55;;;;;;;18.15;2.67;;;2.90;99.90;;;;;;5135602;27;20047;-37
2023/01/19 07:25:21;;;;;;;15.00;2.03;;;2.80;99.90;;;;;;5134686;27;20047;-38
2023/01/19 07:27:47;;;;;;;21.13;2.60;;;2.70;99.90;;;;;;5117212;27;20078;-38
2023/01/19 07:30:14;;;;;;;23.58;2.67;;;2.70;99.90;;;;;;5136163;27;20500;-38
2023/01/19 07:32:41;;;;;;;13.85;1.88;;;2.80;99.90;;;;;;5135099;27;20054;-38
2023/01/19 07:35:08;;;;;;;17.85;2.63;;;3.00;99.90;;;;;;5118525;27;20375;-38
2023/01/19 07:37:34;;;;;;;18.17;2.33;;;3.20;99.90;;;;;;5135400;27;20387;-39
2023/01/19 07:40:00;;;;;;;11.75;2.00;;;3.30;99.90;;;;;;5135980;27;20047;-39
2023/01/19 07:42:26;;;;;;;13.82;1.52;;;3.40;99.90;;;;;;5116928;27;20050;-38
2023/01/19 07:44:52;;;;;;;11.57;2.15;;;3.50;99.90;;;;;;5135744;27;20078;-40
2023/01/19 07:47:17;;;;;;;10.65;1.55;;;3.60;99.90;;;;;;5135078;27;20139;-39
2023/01/19 07:49:43;;;;;;;17.25;2.55;;;3.50;80.00;;;;;;5136499;27;20159;-40
2023/01/19 07:52:09;;;;;;;7.05;1.30;;;3.40;1.00;;;;;;5100281;27;20050;-39
2023/01/19 07:54:37;;;;;;;9.52;1.40;;;3.30;1.00;;;;;;5135694;27;20050;-40
2023/01/19 07:57:03;;;;;;;8.07;1.00;;;3.20;1.00;;;;;;5099691;27;20450;-41
2023/01/19 07:59:29;;;;;;;17.02;2.17;;;3.10;99.90;;;;;;5118060;27;20050;-41
2023/01/19 08:01:58;;;;;;;9.20;1.67;;;3.20;99.90;;;;;;5135309;27;20096;-41
2023/01/19 08:04:25;;;;;;;9.32;0.65;;;3.40;99.90;;;;;;5135785;27;20066;-41
2023/01/19 08:06:51;;;;;;;21.35;1.77;;;3.50;99.90;;;;;;5114904;27;20042;-41
2023/01/19 08:09:17;;;;;;;8.70;1.33;;;4.10;99.90;;;;;;5135046;27;20043;-41
2023/01/19 08:11:42;;;;;;;14.70;2.65;;;3.70;38.50;;;;;;5136210;27;20385;-41
2023/01/19 08:14:08;;;;;;;15.63;2.35;;;3.70;99.90;;;;;;5117184;27;20066;-41
2023/01/19 08:16:35;;;;;;;19.50;1.83;;;3.70;1.00;;;;;;5134628;27;20473;-41
2023/01/19 08:19:01;;;;;;;18.33;2.10;;;3.60;1.00;;;;;;5134899;27;20505;-41
2023/01/19 08:21:27;;;;;;;12.70;2.22;;;3.70;1.00;;;;;;5117172;27;20051;-41
2023/01/19 08:23:54;;;;;;;12.63;1.25;;;3.50;1.00;;;;;;5133672;27;20121;-41
2023/01/19 08:26:26;;;;;;;13.80;1.55;;;3.40;1.00;;;;;;5134202;27;20057;-41
2023/01/19 08:28:52;;;;;;;19.05;2.22;;;3.40;99.90;;;;;;5132425;27;20042;-41
2023/01/19 08:31:18;;;;;;;13.15;2.47;;;3.30;20.10;;;;;;5135118;27;20079;-40
2023/01/19 08:33:44;;;;;;;14.43;1.90;;;3.10;99.90;;;;;;5135018;27;20126;-39
2023/01/19 08:36:10;;;;;;;17.83;2.47;;;3.20;99.90;;;;;;5134024;27;20073;-39
2023/01/19 08:38:38;;;;;;;11.98;1.90;;;2.90;99.90;;;;;;5135782;27;20046;-38
2023/01/19 08:41:04;;;;;;;17.05;1.98;;;2.70;99.90;;;;;;5134889;27;20446;-38
2023/01/19 08:43:30;;;;;;;25.27;2.97;;;2.60;1.00;;;;;;5115209;27;20046;-39
2023/01/19 08:45:55;;;;;;;19.75;2.15;;;2.50;1.00;;;;;;5133895;27;20039;-38
2023/01/19 08:48:22;;;;;;;13.55;1.88;;;2.40;1.00;;;;;;5133374;27;20502;-39
2023/01/19 08:50:49;;;;;;;11.52;1.85;;;2.40;1.00;;;;;;5135372;27;20043;-38
2023/01/19 08:53:15;;;;;;;19.85;2.28;;;2.40;16.20;;;;;;5133623;27;20039;-39
2023/01/19 08:55:42;;;;;;;13.60;2.22;;;2.40;81.20;;;;;;5134181;27;20043;-40
2023/01/19 08:58:08;;;;;;;23.95;2.58;;;2.40;67.70;;;;;;5115534;28;20074;-40
2023/01/19 09:00:39;;;;;;;20.88;3.75;;;2.60;65.70;;;;;;5134613;28;20082;-38
2023/01/19 09:03:10;;;;;;;12.52;1.73;;;2.60;6.90;;;;;;5115581;28;20047;-39
2023/01/19 09:05:37;;;;;;;21.73;2.05;;;2.60;1.00;;;;;;5116365;28;20051;-39
2023/01/19 09:08:07;;;;;;;14.98;2.45;;;2.60;1.00;;;;;;5133167;28;20144;-40
2023/01/19 09:10:34;;;;;;;26.15;4.05;;;2.60;1.00;;;;;;5132702;28;20400;-41
2023/01/19 09:13:06;;;;;;;13.48;1.67;;;2.60;1.00;;;;;;5133722;28;20085;-40
2023/01/19 09:15:36;;;;;;;13.02;3.10;;;3.00;1.00;;;;;;5133936;28;20053;-39
2023/01/19 09:18:04;;;;;;;11.68;1.55;;;2.80;76.50;;;;;;5135292;28;20050;-39
2023/01/19 09:20:30;;;;;;;9.05;1.50;;;2.70;99.90;;;;;;5133532;28;20047;-40
2023/01/19 09:22:59;;;;;;;11.38;1.10;;;2.60;12.30;;;;;;5115385;28;20050;-40
2023/01/19 09:25:29;;;;;;;8.48;1.40;;;2.60;99.90;;;;;;5134363;28;20039;-41
2023/01/19 09:27:55;;;;;;;14.10;1.20;;;2.60;1.00;;;;;;5116837;28;20427;-40
2023/01/19 09:30:21;;;;;;;9.73;1.20;;;2.60;99.90;;;;;;5134385;28;20039;-41
2023/01/19 09:32:49;;;;;;;8.88;2.17;;;2.70;99.90;;;;;;5133502;28;20168;-41
2023/01/19 09:35:15;;;;;;;6.35;1.20;;;2.70;99.90;;;;;;5098214;28;20075;-41
2023/01/19 09:37:45;;;;;;;14.90;1.85;;;2.80;99.90;;;;;;5116670;28;20086;-41
2023/01/19 09:40:11;;;;;;;14.48;1.77;;;2.90;99.90;;;;;;5114472;28;20051;-41
2023/01/19 09:42:42;;;;;;;14.13;1.85;;;3.00;99.90;;;;;;5133242;28;20050;-41
2023/01/19 09:45:17;;;;;;;10.98;1.45;;;3.10;99.90;;;;;;5134494;28;20047;-41
2023/01/19 09:47:44;;;;;;;12.43;1.33;;;3.30;99.90;;;;;;5130095;28;20045;-42
2023/01/19 09:50:25;;;;;;;9.07;1.20;;;3.40;99.90;;;;;;5098393;28;20134;-42
2023/01/19 09:53:06;;;;;;;10.98;1.50;;;3.50;1.00;;;;;;5134222;28;20051;-42
2023/01/19 09:55:32;;;;;;;16.17;2.60;;;3.60;69.20;;;;;;5134493;28;20050;-42
2023/01/19 09:57:58;;;;;;;13.68;1.95;;;3.70;1.00;;;;;;5134109;28;20054;-42
2023/01/19 10:00:26;;;;;;;12.18;2.13;;;3.70;99.90;;;;;;5115951;28;20051;-42
2023/01/19 10:02:58;;;;;;;18.27;3.15;;;3.80;1.00;;;;;;5134378;28;20064;-41
2023/01/19 10:05:24;;;;;;;13.15;2.58;;;4.00;1.00;;;;;;5135195;27;20054;-42
2023/01/19 10:08:15;;;;;;;17.92;2.95;;;4.00;1.00;;;;;;5137803;27;20051;-42
2023/01/19 10:10:46;;;;;;;14.82;1.42;;;3.90;1.00;;;;;;5138374;27;20086;-42
2023/01/19 10:13:15;;;;;;;18.65;2.65;;;4.00;9.20;;;;;;5138316;27;20367;-42
2023/01/19 10:16:00;;;;;;;11.52;2.03;;;4.00;1.00;;;;;;5137660;27;20039;-42
2023/01/19 10:18:47;;;;;;;15.15;2.13;;;4.00;99.90;;;;;;5138184;27;20080;-42
2023/01/19 10:21:37;;;;;;;18.92;1.98;;;4.10;1.00;;;;;;5137254;27;20519;-41
2023/01/19 10:24:27;;;;;;;16.85;3.13;;;4.20;99.90;;;;;;5137567;27;20047;-41
2023/01/19 10:26:54;;;;;;;13.98;1.73;;;4.20;1.00;;;;;;5137998;27;20043;-41
2023/01/19 10:29:25;;;;;;;19.67;2.22;;;4.30;99.90;;;;;;5137300;27;20043;-41
2023/01/19 10:32:08;;;;;;;9.77;1.63;;;4.40;60.30;;;;;;5138257;27;20127;-41
2023/01/19 10:34:34;;;;;;;12.43;1.90;;;4.40;1.00;;;;;;5137937;27;20075;-40
2023/01/19 10:37:16;;;;;;;10.45;1.30;;;4.50;99.90;;;;;;5137300;27;20060;-41
2023/01/19 10:39:46;;;;;;;11.95;2.05;;;4.40;1.00;;;;;;5137837;27;20083;-40
2023/01/19 10:42:18;;;;;;;11.43;1.73;;;4.50;1.00;;;;;;5119151;27;20556;-40
2023/01/19 10:44:44;;;;;;;9.32;1.55;;;4.50;1.00;;;;;;5137039;27;20111;-40
2023/01/19 10:47:26;;;;;;;17.30;3.97;;;4.50;99.90;;;;;;5119196;27;20453;-40
2023/01/19 10:49:52;;;;;;;11.68;1.60;;;4.60;99.90;;;;;;5137379;27;20059;-40
2023/01/19 10:52:25;;;;;;;10.75;1.83;;;4.70;99.90;;;;;;5136918;27;20100;-41
2023/01/19 10:54:51;;;;;;;16.15;2.17;;;4.80;57.10;;;;;;5137525;27;20043;-41
2023/01/19 10:57:27;;;;;;;18.08;2.97;;;4.80;99.90;;;;;;5118541;27;20039;-41
2023/01/19 10:59:53;;;;;;;19.95;1.85;;;4.80;1.00;;;;;;5102328;27;20477;-41
2023/01/19 11:02:27;;;;;;;13.43;1.95;;;4.80;99.90;;;;;;5137004;27;20122;-41
2023/01/19 11:04:56;;;;;;;17.13;1.92;;;5.00;99.90;;;;;;5136666;27;20121;-42
2023/01/19 11:07:33;;;;;;;11.65;1.70;;;5.10;1.00;;;;;;5136683;27;20050;-41
2023/01/19 11:10:19;;;;;;;15.70;1.52;;;5.10;99.90;;;;;;5119443;27;20046;-42
2023/01/19 11:13:06;;;;;;;16.15;1.95;;;5.00;1.00;;;;;;5137119;27;20047;-42
2023/01/19 11:15:40;;;;;;;12.38;2.72;;;5.00;99.90;;;;;;5102349;27;20131;-42
2023/01/19 11:18:06;;;;;;;11.13;2.13;;;5.20;99.90;;;;;;5136231;27;20122;-42
2023/01/19 11:20:42;;;;;;;14.80;2.25;;;5.40;99.90;;;;;;5118192;27;20404;-42
2023/01/19 11:23:26;;;;;;;21.85;2.35;;;5.40;1.00;;;;;;5136424;27;20039;-42
2023/01/19 11:25:53;;;;;;;18.08;3.08;;;5.50;99.90;;;;;;5118676;27;20047;-42
2023/01/19 11:28:29;;;;;;;8.88;1.80;;;5.60;99.90;;;;;;5101187;27;20389;-42
2023/01/19 11:31:16;;;;;;;6.75;1.65;;;5.70;24.00;;;;;;5136544;27;20046;-42
2023/01/19 11:33:47;;;;;;;13.80;2.17;;;5.70;99.90;;;;;;5136172;27;20043;-42
2023/01/19 11:36:17;;;;;;;14.07;1.85;;;5.70;1.00;;;;;;5136124;27;20085;-42
2023/01/19 11:38:44;;;;;;;10.88;1.52;;;5.70;99.90;;;;;;5136863;27;20047;-42
2023/01/19 11:41:32;;;;;;;11.45;2.03;;;5.70;1.00;;;;;;5136034;27;20092;-42
2023/01/19 11:44:30;;;;;;;12.35;1.98;;;5.80;99.90;;;;;;5136109;27;20051;-42
2023/01/19 11:47:05;;;;;;;8.27;1.55;;;5.80;99.90;;;;;;5136245;27;20414;-42
2023/01/19 11:49:45;;;;;;;9.70;1.02;;;5.90;16.10;;;;;;5136146;27;20092;-43
2023/01/19 11:52:27;;;;;;;10.23;2.20;;;6.20;99.90;;;;;;5135644;27;20501;-43
2023/01/19 11:55:23;;;;;;;8.77;1.08;;;6.20;99.90;;;;;;5100526;27;20047;-43
2023/01/19 11:57:50;;;;;;;6.75;1.10;;;6.20;99.90;;;;;;5103006;27;20345;-43
2023/01/19 12:00:27;;;;;;;9.32;1.30;;;5.90;99.90;;;;;;5135753;27;20043;-43
2023/01/19 12:03:06;;;;;;;13.23;2.88;;;5.80;1.00;;;;;;5135478;27;20057;-43
2023/01/19 12:05:34;;;;;;;10.43;1.25;;;5.40;99.90;;;;;;5135350;27;20472;-43
2023/01/19 12:08:05;;;;;;;12.20;1.33;;;5.10;1.00;;;;;;5117097;27;20047;-43
2023/01/19 12:10:36;;;;;;;9.30;1.48;;;5.00;99.90;;;;;;5135398;27;20047;-43
2023/01/19 12:13:03;;;;;;;17.85;1.63;;;5.10;8.40;;;;;;5118067;27;20051;-43
2023/01/19 12:15:31;;;;;;;10.68;1.55;;;5.10;1.00;;;;;;5117168;27;20451;-43
2023/01/19 12:18:00;;;;;;;13.25;1.70;;;5.20;99.90;;;;;;5116850;27;20047;-43
2023/01/19 12:20:26;;;;;;;18.30;2.28;;;5.40;1.00;;;;;;5116849;27;20039;-43
2023/01/19 12:23:10;;;;;;;11.13;1.85;;;5.50;99.90;;;;;;5134835;27;20055;-43
2023/01/19 12:26:25;;;;;;;11.63;1.55;;;5.50;99.90;;;;;;5135979;27;20119;-43
2023/01/19 12:28:56;;;;;;;7.65;1.52;;;5.40;99.90;;;;;;5100255;28;20055;-43
2023/01/19 12:31:22;;;;;;;12.43;1.50;;;5.20;99.90;;;;;;5134423;27;20051;-43
2023/01/19 12:33:48;;;;;;;8.07;1.45;;;5.10;99.90;;;;;;5134973;27;20065;-43
2023/01/19 12:36:31;;;;;;;7.40;1.40;;;5.00;1.00;;;;;;5134839;27;20117;-43
2023/01/19 12:39:18;;;;;;;7.30;1.13;;;4.80;1.00;;;;;;5135698;27;20074;-43
2023/01/19 12:41:45;;;;;;;9.00;1.25;;;4.70;99.90;;;;;;5117763;27;20054;-43
2023/01/19 12:44:12;;;;;;;11.27;0.93;;;4.50;99.90;;;;;;5135738;27;20118;-43
2023/01/19 12:46:42;;;;;;;7.72;0.93;;;4.40;99.90;;;;;;5134758;27;20045;-43
2023/01/19 12:49:32;;;;;;;12.75;1.50;;;4.40;1.00;;;;;;5116145;27;20480;-43
2023/01/19 12:52:37;;;;;;;8.52;1.00;;;4.30;1.00;;;;;;5116510;27;20057;-43
2023/01/19 12:55:13;;;;;;;9.13;1.58;;;4.30;1.00;;;;;;5135503;27;20138;-43
2023/01/19 12:58:09;;;;;;;11.23;1.35;;;4.20;1.00;;;;;;5134617;27;20481;-43
2023/01/19 13:00:37;;;;;;;12.77;1.50;;;4.10;1.00;;;;;;5135006;27;20083;-43
2023/01/19 13:03:16;;;;;;;11.88;2.10;;;4.00;99.90;;;;;;5134567;28;20047;-43
2023/01/19 13:05:42;;;;;;;7.70;0.90;;;4.00;99.90;;;;;;5134826;28;20039;-43
2023/01/19 13:08:07;;;;;;;10.98;1.52;;;3.90;99.90;;;;;;5135234;28;20525;-43
2023/01/19 13:11:13;;;;;;;8.75;1.17;;;4.00;99.90;;;;;;5116450;28;20055;-43
2023/01/19 13:13:47;;;;;;;9.98;1.17;;;3.90;99.90;;;;;;5034988;28;20090;-43
2023/01/19 13:16:18;;;;;;;4.68;0.82;;;3.80;1.00;;;;;;5124398;28;20051;-43